Time;durP1;ratioP1;P1;durP2;ratioP2;P2;SDS_P1;SDS_P2;PMS_P1;PMS_P2;Temp;Humidity;BMP_temperature;BMP_pressure;BME280_temperature;BME280_humidity;BME280_pressure;Samples;Min_cycle;Max_cycle;Signal;HPM_P1;HPM_P2
2022/10/25 07:43:10;;;;;;;4.00;0.50;;;14.80;99.90;;;;;;4932357;23;20238;-71
2022/10/25 07:45:38;;;;;;;2.43;0.60;;;14.80;99.90;;;;;;4894744;29;20214;-71
2022/10/25 07:48:05;;;;;;;4.50;0.60;;;14.80;99.90;;;;;;4899047;29;20215;-72
2022/10/25 07:50:32;;;;;;;1.27;0.50;;;14.70;99.90;;;;;;4898448;29;20249;-71
2022/10/25 07:52:59;;;;;;;1.27;0.50;;;14.90;99.90;;;;;;4898499;29;20214;-72
2022/10/25 07:55:26;;;;;;;4.20;0.90;;;14.90;99.90;;;;;;4898283;29;20665;-72
2022/10/25 07:57:52;;;;;;;1.30;0.60;;;14.80;99.90;;;;;;4898051;29;20214;-70
2022/10/25 08:00:21;;;;;;;3.23;0.50;;;14.80;99.90;;;;;;4897125;29;20234;-70
2022/10/25 08:02:47;;;;;;;2.77;0.50;;;14.80;99.90;;;;;;4897596;29;20210;-71
2022/10/25 08:05:14;;;;;;;2.43;0.60;;;14.80;99.90;;;;;;4897722;29;20210;-72
2022/10/25 08:07:41;;;;;;;2.67;0.60;;;14.80;99.90;;;;;;4897844;29;20237;-72
2022/10/25 08:10:08;;;;;;;1.33;0.50;;;15.00;99.90;;;;;;4897813;29;20256;-71
2022/10/25 08:12:35;;;;;;;4.70;0.90;;;15.00;99.90;;;;;;4898397;29;20558;-73
2022/10/25 08:15:02;;;;;;;3.30;0.50;;;15.00;99.90;;;;;;4898200;29;20214;-72
2022/10/25 08:17:30;;;;;;;4.70;0.80;;;14.80;99.90;;;;;;4897913;29;20210;-69
2022/10/25 08:19:57;;;;;;;0.97;0.50;;;14.60;99.90;;;;;;4897913;29;20732;-70
2022/10/25 08:22:24;;;;;;;3.60;1.03;;;14.70;99.90;;;;;;4898257;29;20250;-71
2022/10/25 08:24:50;;;;;;;4.97;0.77;;;15.10;99.90;;;;;;4876812;29;20207;-70
2022/10/25 08:27:17;;;;;;;2.27;0.60;;;15.50;99.90;;;;;;4878367;29;20211;-71
2022/10/25 08:29:44;;;;;;;1.77;0.90;;;15.70;99.90;;;;;;4879092;29;20235;-71
2022/10/25 08:32:11;;;;;;;3.63;0.60;;;15.70;99.90;;;;;;4879426;29;20233;-69
2022/10/25 08:34:39;;;;;;;3.97;0.70;;;15.70;99.90;;;;;;4879345;29;20211;-71
2022/10/25 08:37:06;;;;;;;4.27;0.90;;;15.90;99.90;;;;;;4879332;29;20215;-70
2022/10/25 08:39:33;;;;;;;2.97;1.30;;;16.10;99.90;;;;;;4879034;29;20231;-71
2022/10/25 08:42:01;;;;;;;3.50;0.80;;;16.10;99.90;;;;;;4878745;29;20670;-70
2022/10/25 08:44:40;;;;;;;4.43;0.60;;;16.00;99.90;;;;;;4879050;29;20268;-69
2022/10/25 08:47:13;;;;;;;1.77;0.73;;;16.10;99.90;;;;;;4879109;29;20215;-69
2022/10/25 08:49:51;;;;;;;4.07;0.63;;;16.10;99.90;;;;;;4879313;29;20226;-70
2022/10/25 08:52:26;;;;;;;2.90;0.60;;;16.10;99.90;;;;;;4879173;29;20211;-70
2022/10/25 08:54:56;;;;;;;5.33;0.90;;;16.00;99.90;;;;;;4879057;29;20206;-70
2022/10/25 08:57:25;;;;;;;2.03;0.43;;;16.00;99.90;;;;;;4878935;29;20211;-69
2022/10/25 08:59:54;;;;;;;1.83;0.73;;;15.90;99.90;;;;;;4878956;29;20231;-69
2022/10/25 09:02:27;;;;;;;2.67;0.60;;;16.00;99.90;;;;;;4878952;29;20578;-69
2022/10/25 09:04:56;;;;;;;2.10;0.53;;;16.00;99.90;;;;;;4879142;29;20218;-70
2022/10/25 09:07:46;;;;;;;4.97;0.80;;;15.90;99.90;;;;;;4879404;29;20211;-69
2022/10/25 09:10:22;;;;;;;7.17;0.70;;;16.00;99.90;;;;;;4873348;29;20242;-70
2022/10/25 09:12:58;;;;;;;3.27;0.90;;;16.20;99.90;;;;;;4882668;29;20218;-69
2022/10/25 09:15:41;;;;;;;2.07;0.70;;;16.00;99.90;;;;;;4882550;29;20382;-70
2022/10/25 09:18:15;;;;;;;6.20;0.80;;;16.00;99.90;;;;;;4882748;29;20221;-70
2022/10/25 09:20:49;;;;;;;2.73;0.97;;;15.90;99.90;;;;;;4882140;29;20571;-70
2022/10/25 09:23:23;;;;;;;6.27;0.90;;;15.90;99.90;;;;;;4882168;29;20210;-70
2022/10/25 09:25:56;;;;;;;4.73;1.00;;;16.00;99.90;;;;;;4882368;29;20215;-70
2022/10/25 09:28:30;;;;;;;6.13;1.90;;;16.10;99.90;;;;;;4881956;29;20570;-70
2022/10/25 09:30:59;;;;;;;3.23;0.90;;;16.20;99.90;;;;;;4881925;29;20235;-70
2022/10/25 09:33:30;;;;;;;4.53;1.00;;;16.40;99.90;;;;;;4881913;29;20207;-70
2022/10/25 09:35:59;;;;;;;3.00;0.83;;;16.40;99.90;;;;;;4881661;29;20211;-70
2022/10/25 09:38:34;;;;;;;3.43;1.10;;;16.40;99.90;;;;;;4881801;29;20211;-70
2022/10/25 09:41:03;;;;;;;2.23;0.80;;;16.40;99.90;;;;;;4882209;29;20206;-70
2022/10/25 09:43:36;;;;;;;4.97;1.17;;;16.50;99.90;;;;;;4881933;29;20219;-70
2022/10/25 09:46:08;;;;;;;2.30;0.90;;;16.50;99.90;;;;;;4882015;29;20215;-71
2022/10/25 09:48:45;;;;;;;2.37;0.87;;;16.60;99.90;;;;;;4881678;29;20666;-70
2022/10/25 09:51:19;;;;;;;1.33;0.70;;;16.50;99.90;;;;;;4881528;29;20330;-70
2022/10/25 09:53:46;;;;;;;0.83;0.60;;;16.60;99.90;;;;;;4882084;29;20217;-71
2022/10/25 09:56:16;;;;;;;3.20;0.87;;;16.60;99.90;;;;;;4881953;29;20215;-70
2022/10/25 09:58:45;;;;;;;4.23;0.90;;;16.70;99.90;;;;;;4881809;29;20305;-70
2022/10/25 10:01:16;;;;;;;2.20;0.87;;;16.70;99.90;;;;;;4881537;29;20211;-70
2022/10/25 10:03:43;;;;;;;4.43;0.90;;;16.80;99.90;;;;;;4881562;29;20219;-71
2022/10/25 10:06:18;;;;;;;2.13;0.80;;;16.70;99.90;;;;;;4881917;29;20211;-70
2022/10/25 10:08:49;;;;;;;2.70;0.90;;;16.70;99.90;;;;;;4881612;29;20246;-69
2022/10/25 10:11:18;;;;;;;1.97;0.60;;;16.60;99.90;;;;;;4881237;29;20597;-70
2022/10/25 10:13:48;;;;;;;2.27;1.00;;;16.70;99.90;;;;;;4881402;29;20222;-71
2022/10/25 10:16:21;;;;;;;2.03;0.73;;;16.80;99.90;;;;;;4881596;29;20221;-70
2022/10/25 10:18:48;;;;;;;3.90;0.90;;;16.90;99.90;;;;;;4881220;29;20245;-72
2022/10/25 10:21:19;;;;;;;3.00;0.87;;;17.00;99.90;;;;;;4881158;29;20219;-70
2022/10/25 10:23:52;;;;;;;3.00;0.77;;;17.10;99.90;;;;;;4881339;29;20686;-71
2022/10/25 10:26:24;;;;;;;2.13;1.10;;;17.20;99.90;;;;;;4880945;29;20663;-69
2022/10/25 10:29:00;;;;;;;2.17;0.80;;;17.30;99.90;;;;;;4880814;29;20729;-70
2022/10/25 10:31:35;;;;;;;3.00;0.87;;;17.50;99.90;;;;;;4881144;29;20250;-70
2022/10/25 10:34:02;;;;;;;3.15;0.80;;;17.40;99.90;;;;;;4880877;29;20623;-72
2022/10/25 10:36:32;;;;;;;2.40;0.70;;;17.40;99.90;;;;;;4881007;29;20203;-70
2022/10/25 10:39:20;;;;;;;2.30;0.85;;;17.50;99.90;;;;;;4880650;29;20283;-70
2022/10/25 10:42:02;;;;;;;2.35;0.80;;;17.50;99.90;;;;;;4880906;29;20211;-70
2022/10/25 10:44:29;;;;;;;1.80;0.60;;;17.60;99.90;;;;;;4880496;29;20304;-70
2022/10/25 10:46:57;;;;;;;2.95;0.60;;;17.90;99.90;;;;;;4880813;29;20217;-70
2022/10/25 10:49:36;;;;;;;2.25;0.80;;;18.10;99.90;;;;;;4880538;29;20602;-70
2022/10/25 10:52:06;;;;;;;2.50;0.95;;;18.20;99.90;;;;;;4880523;29;20294;-71
2022/10/25 10:54:34;;;;;;;4.50;1.15;;;18.10;99.90;;;;;;4880758;29;20585;-70
2022/10/25 10:57:03;;;;;;;0.80;0.70;;;18.00;99.90;;;;;;4880826;29;20215;-70
2022/10/25 10:59:38;;;;;;;1.80;0.70;;;17.80;99.90;;;;;;4880562;29;20234;-71
2022/10/25 11:02:23;;;;;;;4.38;0.70;;;17.90;99.90;;;;;;4880596;29;20238;-70
2022/10/25 11:04:51;;;;;;;2.42;0.63;;;17.70;99.90;;;;;;4880467;29;20218;-70
2022/10/25 11:07:28;;;;;;;2.80;0.70;;;17.80;99.90;;;;;;4880418;29;20216;-71
2022/10/25 11:10:19;;;;;;;4.23;0.70;;;17.80;99.90;;;;;;4880348;29;20241;-70
2022/10/25 11:13:03;;;;;;;2.20;0.70;;;17.70;99.90;;;;;;4880222;29;20226;-70
2022/10/25 11:15:33;;;;;;;3.60;0.80;;;17.50;99.90;;;;;;4880641;29;20213;-70
2022/10/25 11:18:04;;;;;;;5.07;0.60;;;17.50;99.90;;;;;;4880513;29;20219;-70
2022/10/25 11:20:42;;;;;;;3.05;0.73;;;17.60;99.90;;;;;;4880382;29;20306;-70
2022/10/25 11:23:18;;;;;;;1.88;0.63;;;17.60;99.90;;;;;;4880481;29;20215;-70
2022/10/25 11:25:52;;;;;;;3.75;0.90;;;17.70;99.90;;;;;;4880392;29;20215;-70
2022/10/25 11:28:34;;;;;;;4.60;1.35;;;17.80;99.90;;;;;;4880203;29;20216;-70
2022/10/25 11:31:10;;;;;;;5.72;0.65;;;17.80;99.90;;;;;;4879935;29;20329;-71
2022/10/25 11:33:51;;;;;;;5.55;1.08;;;18.00;99.90;;;;;;4879567;29;20207;-72
2022/10/25 11:36:46;;;;;;;1.80;0.85;;;18.10;99.90;;;;;;4879804;29;20218;-72
2022/10/25 11:39:28;;;;;;;1.85;0.77;;;18.00;99.90;;;;;;4879867;29;20598;-71
2022/10/25 11:42:03;;;;;;;1.13;0.47;;;18.00;99.90;;;;;;4879924;29;20225;-71
2022/10/25 11:44:56;;;;;;;0.70;0.35;;;17.80;99.90;;;;;;4879640;29;20218;-71
2022/10/25 11:47:36;;;;;;;1.02;0.40;;;17.80;99.90;;;;;;4879992;29;20207;-72
2022/10/25 11:50:18;;;;;;;2.67;0.68;;;17.80;99.90;;;;;;4879971;29;20722;-70
2022/10/25 11:53:03;;;;;;;2.45;0.50;;;17.70;99.90;;;;;;4879534;29;20235;-70
2022/10/25 11:55:38;;;;;;;0.88;0.40;;;17.70;99.90;;;;;;4879538;29;20207;-70
2022/10/25 11:58:20;;;;;;;1.38;0.70;;;17.50;99.90;;;;;;4879427;29;20674;-70
2022/10/25 12:00:58;;;;;;;1.50;0.47;;;17.40;99.90;;;;;;4879826;29;20231;-70
2022/10/25 12:03:39;;;;;;;4.40;0.73;;;17.30;99.90;;;;;;4879761;29;20211;-70
2022/10/25 12:06:15;;;;;;;1.50;0.55;;;17.50;99.90;;;;;;4874991;29;20221;-70
2022/10/25 12:08:49;;;;;;;2.17;0.50;;;17.60;99.90;;;;;;4878601;29;20226;-68
2022/10/25 12:11:20;;;;;;;0.98;0.38;;;17.70;99.90;;;;;;4878107;29;20246;-69
2022/10/25 12:13:50;;;;;;;4.13;0.45;;;17.80;99.90;;;;;;4877866;29;20214;-70
2022/10/25 12:16:20;;;;;;;4.18;1.08;;;17.80;99.90;;;;;;4877516;29;20215;-69
2022/10/25 12:18:49;;;;;;;0.82;0.30;;;17.80;99.90;;;;;;4877222;29;20207;-68
2022/10/25 12:21:21;;;;;;;2.45;0.50;;;17.90;99.90;;;;;;4877342;29;20222;-69
2022/10/25 12:23:50;;;;;;;2.05;0.50;;;18.20;99.90;;;;;;4878011;29;20215;-68
2022/10/25 12:26:25;;;;;;;3.20;0.47;;;18.40;99.90;;;;;;4877959;29;20219;-68
2022/10/25 12:28:52;;;;;;;3.28;0.40;;;18.50;99.90;;;;;;4878967;29;20706;-70
2022/10/25 12:31:25;;;;;;;1.35;0.60;;;18.60;99.90;;;;;;4879319;29;20602;-69
2022/10/25 12:33:56;;;;;;;3.22;0.80;;;18.70;99.90;;;;;;4879534;29;20221;-69
2022/10/25 12:36:30;;;;;;;1.45;0.80;;;18.80;99.90;;;;;;4878731;29;20221;-68
2022/10/25 12:38:59;;;;;;;3.00;0.60;;;18.80;99.90;;;;;;4879128;29;20230;-69
2022/10/25 12:41:30;;;;;;;5.35;0.95;;;18.70;99.90;;;;;;4879252;29;20219;-68
2022/10/25 12:44:19;;;;;;;1.50;0.60;;;18.70;99.90;;;;;;4878787;29;20221;-68
2022/10/25 12:47:11;;;;;;;1.05;0.55;;;18.60;99.90;;;;;;4883221;29;20215;-68
2022/10/25 12:50:19;;;;;;;3.45;1.00;;;18.40;99.90;;;;;;4882848;29;20733;-69
2022/10/25 12:53:04;;;;;;;3.45;0.70;;;18.40;99.90;;;;;;4872271;29;20275;-69
2022/10/25 12:55:43;;;;;;;3.08;0.77;;;18.20;99.90;;;;;;4883038;29;20218;-68
2022/10/25 12:58:26;;;;;;;3.55;0.50;;;18.40;99.90;;;;;;4882834;29;20258;-68
2022/10/25 13:01:10;;;;;;;2.28;0.60;;;18.60;99.90;;;;;;4882410;29;20572;-68
2022/10/25 13:04:07;;;;;;;4.38;0.70;;;18.70;99.90;;;;;;4882846;29;20214;-68
2022/10/25 13:06:35;;;;;;;2.40;0.52;;;18.80;99.90;;;;;;4882009;29;20562;-68
2022/10/25 13:09:07;;;;;;;2.55;0.50;;;18.70;99.90;;;;;;4882523;29;20576;-69
2022/10/25 13:11:37;;;;;;;1.48;0.32;;;18.70;99.90;;;;;;4882621;29;20238;-68
2022/10/25 13:14:14;;;;;;;2.55;0.50;;;18.80;99.90;;;;;;4878976;29;20207;-68
2022/10/25 13:16:41;;;;;;;2.38;0.38;;;18.70;99.90;;;;;;4881269;29;20301;-68
2022/10/25 13:19:29;;;;;;;5.07;0.47;;;18.50;99.90;;;;;;4880939;29;20235;-68
2022/10/25 13:22:29;;;;;;;1.55;0.55;;;18.40;99.90;;;;;;4880880;29;20250;-68
2022/10/25 13:24:56;;;;;;;1.98;0.90;;;18.40;99.90;;;;;;4881052;29;20211;-69
2022/10/25 13:27:25;;;;;;;2.55;0.50;;;18.30;99.90;;;;;;4880989;29;20211;-70
2022/10/25 13:30:02;;;;;;;1.70;0.40;;;18.30;99.90;;;;;;4880889;29;20253;-68
2022/10/25 13:32:30;;;;;;;1.35;0.38;;;18.40;99.90;;;;;;4880958;29;20234;-69
2022/10/25 13:34:58;;;;;;;2.25;0.30;;;18.60;99.90;;;;;;4881069;29;20245;-70
2022/10/25 13:37:42;;;;;;;2.92;0.40;;;18.90;99.90;;;;;;4880633;29;20596;-67
2022/10/25 13:40:27;;;;;;;1.63;0.57;;;18.80;99.90;;;;;;4881468;29;20318;-69
2022/10/25 13:43:04;;;;;;;1.42;0.30;;;18.80;99.90;;;;;;4880641;29;20211;-69
2022/10/25 13:45:39;;;;;;;0.82;0.30;;;18.80;99.90;;;;;;4880835;29;20215;-69
2022/10/25 13:48:21;;;;;;;1.08;0.30;;;18.80;99.90;;;;;;4880835;29;20211;-70
2022/10/25 13:50:53;;;;;;;2.20;0.30;;;18.70;99.90;;;;;;4881669;29;20231;-70
2022/10/25 13:53:23;;;;;;;1.20;0.30;;;18.70;99.90;;;;;;4881802;29;20242;-69
2022/10/25 13:55:58;;;;;;;1.27;0.40;;;18.70;99.90;;;;;;4881083;29;20215;-69
2022/10/25 13:58:46;;;;;;;2.13;0.35;;;18.70;99.90;;;;;;4881482;29;20670;-69
2022/10/25 14:01:55;;;;;;;2.58;0.50;;;18.60;99.90;;;;;;4881670;29;20562;-69
2022/10/25 14:04:41;;;;;;;0.77;0.25;;;18.40;99.90;;;;;;4881794;29;20237;-69
2022/10/25 14:07:43;;;;;;;3.38;0.60;;;18.30;99.90;;;;;;4881011;29;20213;-69
2022/10/25 14:10:33;;;;;;;3.00;0.60;;;18.10;99.90;;;;;;4881816;29;20230;-69
2022/10/25 14:13:15;;;;;;;1.00;0.40;;;18.00;99.90;;;;;;4881381;29;20706;-68
2022/10/25 14:15:49;;;;;;;1.17;0.25;;;18.00;99.90;;;;;;4881526;29;20211;-68
2022/10/25 14:18:21;;;;;;;1.60;0.40;;;18.00;99.90;;;;;;4881836;29;20624;-69
2022/10/25 14:20:53;;;;;;;0.40;0.40;;;18.00;99.90;;;;;;4881144;29;20239;-69
2022/10/25 14:23:22;;;;;;;0.73;0.40;;;17.90;99.90;;;;;;4881241;29;20218;-69
2022/10/25 14:25:51;;;;;;;2.63;0.40;;;17.90;99.90;;;;;;4880833;29;20207;-68
2022/10/25 14:28:23;;;;;;;0.50;0.30;;;17.90;99.90;;;;;;4880962;29;20207;-68
2022/10/25 14:30:52;;;;;;;1.67;0.40;;;17.80;99.90;;;;;;4881024;29;20714;-70
2022/10/25 14:33:25;;;;;;;1.57;0.50;;;17.80;99.90;;;;;;4881116;29;20719;-72
2022/10/25 14:35:56;;;;;;;1.00;0.40;;;17.80;99.90;;;;;;4881090;29;20219;-72
2022/10/25 14:38:25;;;;;;;2.88;0.63;;;17.70;99.90;;;;;;4881002;29;20222;-71
2022/10/25 14:40:54;;;;;;;1.27;0.40;;;17.60;99.90;;;;;;4881142;29;20238;-74
2022/10/25 14:43:30;;;;;;;1.30;0.43;;;17.60;99.90;;;;;;4881433;29;20215;-73
2022/10/25 14:46:03;;;;;;;2.15;0.40;;;17.50;99.90;;;;;;4881077;29;20222;-70
2022/10/25 14:48:30;;;;;;;2.15;0.65;;;17.40;99.90;;;;;;4880813;29;20212;-72
2022/10/25 14:51:04;;;;;;;0.68;0.40;;;17.40;99.90;;;;;;4880678;29;20209;-73
2022/10/25 14:53:31;;;;;;;1.20;0.60;;;17.40;99.90;;;;;;4875768;29;20238;-71
2022/10/25 14:56:00;;;;;;;1.83;0.53;;;17.40;99.90;;;;;;4880695;29;20225;-71
2022/10/25 14:58:28;;;;;;;4.07;0.53;;;17.30;99.90;;;;;;4880479;29;20215;-71
2022/10/25 15:00:58;;;;;;;1.50;0.67;;;17.20;99.90;;;;;;4880380;29;20222;-70
2022/10/25 15:03:28;;;;;;;1.53;0.40;;;17.20;99.90;;;;;;4880438;29;20213;-71
2022/10/25 15:05:56;;;;;;;3.07;0.30;;;17.30;99.90;;;;;;4880097;29;20280;-70
2022/10/25 15:08:27;;;;;;;3.47;0.60;;;17.30;99.90;;;;;;4878943;29;20578;-71
2022/10/25 15:10:57;;;;;;;1.08;0.40;;;17.20;99.90;;;;;;4880152;29;20230;-71
2022/10/25 15:13:28;;;;;;;2.05;0.45;;;17.30;99.90;;;;;;4879886;29;20721;-71
2022/10/25 15:15:56;;;;;;;1.57;0.30;;;17.20;99.90;;;;;;4880240;29;20303;-70
2022/10/25 15:18:33;;;;;;;0.80;0.40;;;17.00;99.90;;;;;;4880266;29;20222;-71
2022/10/25 15:21:06;;;;;;;1.90;0.30;;;16.90;99.90;;;;;;4880197;29;20215;-68
2022/10/25 15:23:35;;;;;;;1.80;0.33;;;16.90;99.90;;;;;;4880163;29;20221;-70
2022/10/25 15:26:26;;;;;;;0.90;0.30;;;16.90;99.90;;;;;;4879993;29;20218;-69
2022/10/25 15:28:55;;;;;;;2.70;0.60;;;16.80;99.90;;;;;;4879921;29;20231;-69
2022/10/25 15:31:24;;;;;;;1.77;0.23;;;16.70;99.90;;;;;;4879769;29;20214;-69
2022/10/25 15:33:56;;;;;;;3.07;0.50;;;16.70;99.90;;;;;;4879461;29;20253;-69
2022/10/25 15:36:24;;;;;;;2.00;0.40;;;16.60;99.90;;;;;;4879982;29;20211;-69
2022/10/25 15:38:55;;;;;;;1.80;0.40;;;16.60;99.90;;;;;;4879398;29;20235;-68
2022/10/25 15:41:23;;;;;;;0.83;0.33;;;16.60;99.90;;;;;;4879644;29;20221;-69
2022/10/25 15:43:50;;;;;;;2.30;0.50;;;16.60;99.90;;;;;;4879546;29;20225;-69
2022/10/25 15:46:25;;;;;;;1.77;0.50;;;16.60;99.90;;;;;;4879321;29;20211;-68
2022/10/25 15:48:52;;;;;;;0.80;0.40;;;16.50;99.90;;;;;;4879207;29;20230;-68
2022/10/25 15:51:19;;;;;;;2.07;0.50;;;16.40;99.90;;;;;;4879462;29;20543;-68
2022/10/25 15:53:46;;;;;;;1.00;0.40;;;16.30;99.90;;;;;;4879289;29;20235;-67
2022/10/25 15:56:18;;;;;;;1.40;0.37;;;16.30;99.90;;;;;;4879438;29;20221;-68
2022/10/25 15:58:45;;;;;;;1.70;0.47;;;16.20;99.90;;;;;;4879187;29;20217;-68
2022/10/25 16:01:12;;;;;;;1.27;0.43;;;16.20;99.90;;;;;;4878920;29;20214;-69
2022/10/25 16:03:38;;;;;;;0.87;0.40;;;16.20;99.90;;;;;;4878904;29;20219;-68
2022/10/25 16:06:06;;;;;;;1.47;0.40;;;16.10;99.90;;;;;;4879014;29;20218;-68
2022/10/25 16:08:32;;;;;;;2.23;0.70;;;16.10;99.90;;;;;;4879400;29;20211;-68
2022/10/25 16:10:59;;;;;;;0.40;0.30;;;16.10;99.90;;;;;;4879207;29;20211;-68
2022/10/25 16:13:32;;;;;;;1.33;0.60;;;15.90;99.90;;;;;;4879016;29;20239;-68
2022/10/25 16:15:59;;;;;;;2.03;0.60;;;15.80;99.90;;;;;;4879219;29;20301;-69
2022/10/25 16:18:26;;;;;;;3.87;0.57;;;15.80;99.90;;;;;;4879015;29;20221;-69
2022/10/25 16:20:56;;;;;;;1.63;0.47;;;15.80;99.90;;;;;;4878550;29;20227;-69
2022/10/25 16:23:23;;;;;;;1.23;0.70;;;15.70;99.90;;;;;;4878993;29;20215;-69
2022/10/25 16:25:51;;;;;;;1.47;0.80;;;15.50;99.90;;;;;;4879090;29;20221;-69
2022/10/25 16:28:18;;;;;;;4.77;0.70;;;15.40;99.90;;;;;;4878749;29;20686;-68
2022/10/25 16:30:48;;;;;;;2.30;0.63;;;15.30;99.90;;;;;;4878784;29;20250;-69
2022/10/25 16:33:15;;;;;;;5.50;0.80;;;15.20;99.90;;;;;;4878830;29;20251;-69
2022/10/25 16:35:42;;;;;;;1.33;0.60;;;15.10;99.90;;;;;;4879110;29;20211;-68
2022/10/25 16:38:09;;;;;;;2.43;0.80;;;15.20;99.90;;;;;;4878851;29;20214;-68
2022/10/25 16:40:36;;;;;;;3.67;0.90;;;15.20;99.90;;;;;;4878627;29;20231;-69
2022/10/25 16:43:04;;;;;;;1.57;0.60;;;15.10;99.90;;;;;;4878577;29;20223;-68
2022/10/25 16:45:32;;;;;;;0.87;0.47;;;15.00;99.90;;;;;;4878557;29;20215;-70
2022/10/25 16:48:00;;;;;;;1.40;0.90;;;14.90;99.90;;;;;;4878377;29;20667;-68
2022/10/25 16:50:31;;;;;;;2.93;1.13;;;14.90;99.90;;;;;;4878519;29;20241;-68
2022/10/25 16:53:01;;;;;;;1.53;0.67;;;14.70;99.90;;;;;;4878165;29;20242;-68
2022/10/25 16:55:29;;;;;;;5.27;0.70;;;14.70;99.90;;;;;;4878750;29;20215;-67
2022/10/25 16:57:56;;;;;;;3.93;0.50;;;14.70;99.90;;;;;;4874205;29;20668;-68
2022/10/25 17:00:23;;;;;;;1.83;0.80;;;14.60;99.90;;;;;;4879044;29;20716;-67
2022/10/25 17:02:50;;;;;;;5.53;1.97;;;14.60;99.90;;;;;;4879615;29;20684;-66
2022/10/25 17:05:20;;;;;;;1.77;0.93;;;14.50;99.90;;;;;;4897059;29;20211;-67
2022/10/25 17:07:48;;;;;;;1.97;0.93;;;14.40;99.90;;;;;;4887057;29;20221;-67
2022/10/25 17:10:15;;;;;;;3.07;1.20;;;14.30;99.90;;;;;;4878097;29;20602;-66
2022/10/25 17:12:44;;;;;;;5.13;0.93;;;14.20;99.90;;;;;;4877924;29;20234;-66
2022/10/25 17:15:11;;;;;;;6.80;1.20;;;14.20;99.90;;;;;;4880648;29;20207;-65
2022/10/25 17:17:39;;;;;;;3.43;1.50;;;14.10;99.90;;;;;;4887978;29;20208;-66
2022/10/25 17:20:07;;;;;;;2.83;1.10;;;14.00;99.90;;;;;;4878461;29;20322;-66
2022/10/25 17:22:36;;;;;;;3.10;1.13;;;13.90;99.90;;;;;;4878681;29;20207;-68
2022/10/25 17:25:03;;;;;;;4.77;1.80;;;13.90;99.90;;;;;;4878306;29;20219;-66
2022/10/25 17:27:30;;;;;;;8.07;2.37;;;13.90;99.90;;;;;;4877806;29;20219;-66
2022/10/25 17:29:57;;;;;;;5.00;2.20;;;13.80;99.90;;;;;;4878048;29;20227;-68
2022/10/25 17:32:25;;;;;;;6.47;2.53;;;13.80;99.90;;;;;;4880049;29;20219;-70
2022/10/25 17:34:52;;;;;;;3.60;2.20;;;13.80;99.90;;;;;;4881549;29;20247;-69
2022/10/25 17:37:19;;;;;;;4.53;2.20;;;13.80;99.90;;;;;;4881500;29;20714;-69
2022/10/25 17:39:47;;;;;;;5.03;2.30;;;13.70;99.90;;;;;;4881336;29;20234;-71
2022/10/25 17:42:14;;;;;;;4.97;1.87;;;13.70;99.90;;;;;;4881671;29;20219;-70
2022/10/25 17:44:43;;;;;;;4.17;1.60;;;13.60;99.90;;;;;;4881428;29;20667;-70
2022/10/25 17:47:11;;;;;;;3.43;1.80;;;13.50;99.90;;;;;;4881626;29;20207;-70
2022/10/25 17:49:38;;;;;;;4.43;1.33;;;13.50;99.90;;;;;;4881798;29;20235;-70
2022/10/25 17:52:05;;;;;;;4.67;2.03;;;13.50;99.90;;;;;;4881473;29;20217;-71
2022/10/25 17:54:32;;;;;;;3.93;1.60;;;13.50;99.90;;;;;;4881262;29;20647;-70
2022/10/25 17:57:01;;;;;;;4.80;1.93;;;13.40;99.90;;;;;;4881296;29;20207;-70
2022/10/25 17:59:29;;;;;;;4.27;1.50;;;13.40;99.90;;;;;;4881198;29;20231;-70
2022/10/25 18:01:56;;;;;;;4.33;1.30;;;13.40;99.90;;;;;;4881559;29;20208;-70
2022/10/25 18:04:23;;;;;;;2.07;1.27;;;13.50;99.90;;;;;;4881262;29;20215;-70
2022/10/25 18:06:50;;;;;;;5.80;1.57;;;13.50;99.90;;;;;;4880983;29;20210;-70
2022/10/25 18:09:17;;;;;;;4.43;1.80;;;13.50;99.90;;;;;;4881252;29;20235;-70
2022/10/25 18:11:44;;;;;;;4.73;1.60;;;13.50;99.90;;;;;;4881103;29;20667;-69
2022/10/25 18:14:13;;;;;;;2.37;1.37;;;13.50;99.90;;;;;;4881028;29;20239;-70
2022/10/25 18:16:40;;;;;;;7.87;1.60;;;13.50;99.90;;;;;;4880841;29;20225;-70
2022/10/25 18:19:07;;;;;;;3.67;1.63;;;13.50;99.90;;;;;;4880720;29;20231;-70
2022/10/25 18:21:34;;;;;;;3.37;1.77;;;13.50;99.90;;;;;;4880612;29;20222;-71
2022/10/25 18:24:03;;;;;;;4.90;2.00;;;13.50;99.90;;;;;;4880799;29;20659;-71
2022/10/25 18:26:31;;;;;;;3.00;1.50;;;13.40;99.90;;;;;;4881378;29;20207;-71
2022/10/25 18:28:59;;;;;;;4.47;1.83;;;13.40;99.90;;;;;;4880668;29;20231;-71
2022/10/25 18:31:27;;;;;;;5.17;1.60;;;13.30;99.90;;;;;;4880961;29;20253;-71
2022/10/25 18:33:55;;;;;;;4.67;1.50;;;13.30;99.90;;;;;;4880440;29;20251;-71
2022/10/25 18:36:22;;;;;;;2.57;1.10;;;13.20;99.90;;;;;;4880841;29;20212;-71
2022/10/25 18:38:49;;;;;;;7.20;1.30;;;13.20;99.90;;;;;;4880717;29;20212;-70
2022/10/25 18:41:18;;;;;;;4.90;1.73;;;13.20;99.90;;;;;;4880377;29;20207;-71
2022/10/25 18:43:45;;;;;;;3.20;1.57;;;13.20;99.90;;;;;;4879989;29;20245;-70
2022/10/25 18:46:12;;;;;;;2.93;1.53;;;13.20;99.90;;;;;;4880149;29;20217;-69
2022/10/25 18:48:41;;;;;;;2.33;1.33;;;13.20;99.90;;;;;;4880113;29;20217;-69
2022/10/25 18:51:10;;;;;;;3.93;1.30;;;13.20;99.90;;;;;;4880883;29;20220;-70
2022/10/25 18:53:38;;;;;;;4.10;1.50;;;13.20;99.90;;;;;;4880731;29;20239;-70
2022/10/25 18:56:08;;;;;;;8.50;1.87;;;13.20;99.90;;;;;;4880581;29;20670;-70
2022/10/25 18:58:35;;;;;;;4.60;1.73;;;13.20;99.90;;;;;;4880106;29;20211;-70
2022/10/25 19:01:06;;;;;;;2.40;1.40;;;13.20;99.90;;;;;;4880404;29;20211;-70
2022/10/25 19:03:33;;;;;;;3.33;1.60;;;13.20;99.90;;;;;;4880582;29;20219;-69
2022/10/25 19:06:01;;;;;;;2.50;1.17;;;13.10;99.90;;;;;;4879907;29;20681;-69
2022/10/25 19:08:28;;;;;;;4.60;1.50;;;13.10;99.90;;;;;;4879869;29;20698;-71
2022/10/25 19:10:55;;;;;;;4.80;1.70;;;13.10;99.90;;;;;;4880067;29;20215;-71
2022/10/25 19:13:22;;;;;;;4.90;1.87;;;13.00;99.90;;;;;;4880061;29;20231;-69
2022/10/25 19:15:49;;;;;;;6.07;1.33;;;13.00;99.90;;;;;;4879923;29;20222;-70
2022/10/25 19:18:16;;;;;;;8.33;1.70;;;13.00;99.90;;;;;;4879995;29;20216;-70
2022/10/25 19:20:44;;;;;;;2.77;1.57;;;13.10;99.90;;;;;;4879721;29;20246;-70
2022/10/25 19:23:12;;;;;;;4.83;1.93;;;13.00;99.90;;;;;;4879882;29;20316;-70
2022/10/25 19:25:38;;;;;;;4.80;1.60;;;13.10;99.90;;;;;;4879844;29;20207;-70
2022/10/25 19:28:05;;;;;;;2.83;1.60;;;13.10;99.90;;;;;;4879744;29;20211;-70
2022/10/25 19:30:35;;;;;;;5.57;2.23;;;13.00;99.90;;;;;;4880259;29;20233;-70
2022/10/25 19:33:01;;;;;;;2.37;1.40;;;13.00;99.90;;;;;;4880130;29;20215;-70
2022/10/25 19:35:28;;;;;;;3.73;1.60;;;13.10;99.90;;;;;;4880010;29;20213;-69
2022/10/25 19:37:55;;;;;;;4.20;1.47;;;13.00;99.90;;;;;;4879927;29;20238;-69
2022/10/25 19:40:23;;;;;;;4.43;2.00;;;13.10;99.90;;;;;;4880262;29;20231;-71
2022/10/25 19:42:50;;;;;;;3.73;1.93;;;13.00;99.90;;;;;;4879589;29;20749;-69
2022/10/25 19:45:17;;;;;;;5.27;1.70;;;13.10;99.90;;;;;;4879297;29;20675;-69
2022/10/25 19:47:44;;;;;;;4.30;1.60;;;13.10;99.90;;;;;;4879736;29;20211;-71
2022/10/25 19:50:11;;;;;;;3.77;1.60;;;13.00;99.90;;;;;;4879191;29;20230;-71
2022/10/25 19:52:39;;;;;;;2.83;1.53;;;13.00;99.90;;;;;;4878955;29;20233;-69
2022/10/25 19:55:06;;;;;;;3.43;1.60;;;13.00;99.90;;;;;;4878818;29;20235;-70
2022/10/25 19:57:35;;;;;;;3.27;1.70;;;12.90;99.90;;;;;;4878717;29;20242;-70
2022/10/25 20:00:02;;;;;;;5.57;1.60;;;13.00;99.90;;;;;;4879189;29;20321;-71
2022/10/25 20:02:29;;;;;;;4.27;1.63;;;13.00;99.90;;;;;;4879534;29;20211;-71
2022/10/25 20:04:55;;;;;;;4.40;1.53;;;12.90;99.90;;;;;;4879000;29;20211;-71
2022/10/25 20:07:22;;;;;;;3.00;1.50;;;12.90;99.90;;;;;;4878804;29;20223;-70
2022/10/25 20:09:49;;;;;;;4.73;1.50;;;13.00;99.90;;;;;;4878761;29;20231;-71
2022/10/25 20:12:16;;;;;;;3.77;1.30;;;13.00;99.90;;;;;;4879295;29;20218;-70
2022/10/25 20:14:44;;;;;;;3.33;1.63;;;12.90;99.90;;;;;;4879187;29;20239;-68
2022/10/25 20:17:12;;;;;;;3.37;1.30;;;13.00;99.90;;;;;;4878994;29;20667;-70
2022/10/25 20:19:38;;;;;;;4.33;1.40;;;13.10;99.90;;;;;;4879114;29;20239;-69
2022/10/25 20:22:05;;;;;;;3.83;1.67;;;13.10;99.90;;;;;;4879064;29;20214;-70
2022/10/25 20:24:32;;;;;;;5.27;1.30;;;13.10;99.90;;;;;;4879191;29;20214;-70
2022/10/25 20:27:00;;;;;;;4.70;1.33;;;13.20;99.90;;;;;;4878986;29;20215;-71
2022/10/25 20:29:28;;;;;;;2.30;1.07;;;13.10;99.90;;;;;;4878868;29;20235;-69
2022/10/25 20:31:56;;;;;;;3.67;1.30;;;13.20;99.90;;;;;;4879212;29;20242;-71
2022/10/25 20:34:23;;;;;;;3.23;1.27;;;13.30;99.90;;;;;;4878912;29;20711;-71
2022/10/25 20:36:50;;;;;;;4.20;1.20;;;13.30;99.90;;;;;;4878883;29;20215;-69
2022/10/25 20:39:16;;;;;;;3.00;1.17;;;13.30;99.90;;;;;;4879077;29;20231;-70
2022/10/25 20:41:43;;;;;;;2.13;1.10;;;13.30;99.90;;;;;;4878882;29;20588;-70
2022/10/25 20:44:10;;;;;;;2.17;1.27;;;13.30;99.90;;;;;;4878606;29;20697;-70
2022/10/25 20:46:37;;;;;;;2.70;1.30;;;13.20;99.90;;;;;;4878887;29;20562;-70
2022/10/25 20:49:06;;;;;;;2.47;1.57;;;13.30;99.90;;;;;;4878840;29;20235;-69
2022/10/25 20:51:33;;;;;;;6.33;1.37;;;13.50;99.90;;;;;;4878858;29;20211;-70